Time;durP1;ratioP1;P1;durP2;ratioP2;P2;SDS_P1;SDS_P2;PMS_P1;PMS_P2;Temp;Humidity;BMP_temperature;BMP_pressure;BME280_temperature;BME280_humidity;BME280_pressure;Samples;Min_cycle;Max_cycle;Signal;HPM_P1;HPM_P2
2022/01/05 00:01:49;;;;;;;9.30;5.80;;;;;;;6.95;100.00;97125.22;105075;1271;61308;-73
2022/01/05 00:04:15;;;;;;;7.40;5.90;;;;;;;6.93;100.00;97128.22;105139;1271;62109;-73
2022/01/05 00:06:42;;;;;;;8.60;7.80;;;;;;;6.93;100.00;97128.94;105095;1271;75321;-72
2022/01/05 00:09:09;;;;;;;11.80;10.60;;;;;;;6.92;100.00;97140.84;105122;1271;68197;-73
2022/01/05 00:11:35;;;;;;;16.00;14.30;;;;;;;6.88;100.00;97148.02;104965;1271;74359;-73
2022/01/05 00:14:02;;;;;;;14.20;12.80;;;;;;;6.87;100.00;97157.48;105047;1271;61265;-73
2022/01/05 00:16:29;;;;;;;17.90;16.10;;;;;;;6.83;100.00;97149.86;105141;1271;61823;-72
2022/01/05 00:18:55;;;;;;;27.00;19.90;;;;;;;6.78;100.00;97144.64;105109;1271;75963;-72
2022/01/05 00:21:22;;;;;;;17.10;15.30;;;;;;;6.74;100.00;97142.86;105035;1271;70292;-72
2022/01/05 00:23:49;;;;;;;16.60;14.90;;;;;;;6.70;100.00;97161.17;104971;1271;73751;-72
2022/01/05 00:26:16;;;;;;;17.70;15.90;;;;;;;6.67;100.00;97162.24;105171;1271;61810;-72
2022/01/05 00:28:43;;;;;;;17.20;15.40;;;;;;;6.65;100.00;97149.52;105126;1271;61742;-72
2022/01/05 00:31:09;;;;;;;19.80;17.90;;;;;;;6.62;100.00;97142.36;105220;1271;76303;-73
2022/01/05 00:33:36;;;;;;;22.10;17.80;;;;;;;6.59;100.00;97150.33;105141;1271;70469;-72
2022/01/05 00:36:04;;;;;;;16.60;14.90;;;;;;;6.57;100.00;97150.67;105155;1271;72490;-72
2022/01/05 00:38:30;;;;;;;14.40;13.10;;;;;;;6.57;100.00;97151.96;105095;1271;61366;-72
2022/01/05 00:40:57;;;;;;;13.80;12.60;;;;;;;6.57;100.00;97159.49;105222;1271;61370;-71
2022/01/05 00:43:24;;;;;;;12.30;11.30;;;;;;;6.56;100.00;97166.45;105243;1270;75110;-73
2022/01/05 00:45:50;;;;;;;13.60;12.20;;;;;;;6.54;100.00;97167.67;105022;1271;67183;-72
2022/01/05 00:48:17;;;;;;;14.40;13.10;;;;;;;6.53;100.00;97171.29;105279;1271;73899;-72
2022/01/05 00:50:43;;;;;;;16.50;14.90;;;;;;;6.53;100.00;97174.11;105116;1271;61506;-72
2022/01/05 00:53:10;;;;;;;19.50;17.50;;;;;;;6.53;100.00;97175.52;105268;1271;61393;-73
2022/01/05 00:55:37;;;;;;;15.60;14.20;;;;;;;6.52;100.00;97180.58;106233;1271;75192;-71
2022/01/05 00:58:04;;;;;;;13.40;12.00;;;;;;;6.51;100.00;97172.58;106962;1271;69285;-72
2022/01/05 01:00:31;;;;;;;14.30;11.60;;;;;;;6.49;100.00;97172.05;106544;1271;71262;-72
2022/01/05 01:02:59;;;;;;;13.70;11.90;;;;;;;6.45;100.00;97180.78;106247;1271;61397;-72
2022/01/05 01:05:25;;;;;;;12.20;11.10;;;;;;;6.42;100.00;97187.06;105293;1271;61395;-70
2022/01/05 01:07:52;;;;;;;13.30;12.00;;;;;;;6.39;100.00;97194.83;105214;1271;76165;-71
2022/01/05 01:10:19;;;;;;;12.50;11.40;;;;;;;6.38;100.00;97195.28;104815;1271;576298;-72
2022/01/05 01:12:45;;;;;;;12.80;11.50;;;;;;;6.37;100.00;97195.36;105191;1271;74579;-73
2022/01/05 01:15:12;;;;;;;12.20;11.00;;;;;;;6.36;100.00;97197.89;105177;1271;61246;-73
2022/01/05 01:17:39;;;;;;;12.60;11.30;;;;;;;6.33;100.00;97194.95;105101;1271;61261;-73
2022/01/05 01:20:07;;;;;;;13.90;12.50;;;;;;;6.30;100.00;97186.54;105106;1271;75141;-73
2022/01/05 01:22:35;;;;;;;13.10;11.80;;;;;;;6.29;100.00;97180.48;105303;1271;70315;-73
2022/01/05 01:25:04;;;;;;;14.80;13.30;;;;;;;6.26;100.00;97180.72;105026;1271;73464;-72
2022/01/05 01:27:31;;;;;;;13.70;12.30;;;;;;;6.25;100.00;97187.14;105203;1271;61293;-71
2022/01/05 01:29:57;;;;;;;14.90;13.00;;;;;;;6.23;100.00;97192.77;105122;1271;61495;-72
2022/01/05 01:32:24;;;;;;;16.50;13.60;;;;;;;6.20;100.00;97191.05;105080;1271;74557;-71
2022/01/05 01:34:50;;;;;;;17.60;14.40;;;;;;;6.19;100.00;97192.20;105132;1271;70167;-71
2022/01/05 01:37:17;;;;;;;18.90;15.80;;;;;;;6.17;100.00;97190.94;105128;1271;73358;-72
2022/01/05 01:39:44;;;;;;;19.20;14.60;;;;;;;6.17;100.00;97190.96;105150;1271;61361;-72
2022/01/05 01:42:11;;;;;;;14.00;11.80;;;;;;;6.15;100.00;97186.09;105116;1271;61183;-72
2022/01/05 01:44:37;;;;;;;13.00;10.00;;;;;;;6.14;100.00;97189.73;104946;1271;73759;-72
2022/01/05 01:47:04;;;;;;;9.60;8.60;;;;;;;6.11;100.00;97194.52;105104;1271;69918;-72
2022/01/05 01:49:31;;;;;;;8.80;7.50;;;;;;;6.09;100.00;97188.92;105080;1271;72635;-72
2022/01/05 01:51:58;;;;;;;8.40;7.50;;;;;;;6.08;100.00;97189.71;105145;1271;61344;-71
2022/01/05 01:54:25;;;;;;;9.90;7.10;;;;;;;6.05;100.00;97194.52;104981;1271;61337;-72
2022/01/05 01:56:52;;;;;;;9.50;8.10;;;;;;;6.02;100.00;97201.11;105076;1271;75187;-72
2022/01/05 01:59:19;;;;;;;9.60;7.30;;;;;;;5.99;100.00;97209.94;105119;1271;67325;-71
2022/01/05 02:01:45;;;;;;;8.50;6.60;;;;;;;5.96;100.00;97206.16;105019;1271;71584;-72
2022/01/05 02:04:12;;;;;;;7.30;5.80;;;;;;;5.95;100.00;97204.09;105098;1268;61387;-72
2022/01/05 02:06:39;;;;;;;6.90;5.80;;;;;;;5.93;100.00;97199.11;105133;1271;61308;-72
2022/01/05 02:09:06;;;;;;;8.80;6.60;;;;;;;5.92;100.00;97204.07;105149;1271;74674;-72
2022/01/05 02:11:37;;;;;;;11.80;8.50;;;;;;;5.91;100.00;97200.81;105085;1271;69523;-72
2022/01/05 02:14:04;;;;;;;7.70;6.30;;;;;;;5.91;100.00;97198.75;105143;1271;73488;-72
2022/01/05 02:16:33;;;;;;;7.40;6.20;;;;;;;5.90;100.00;97201.95;105081;1271;61312;-73
2022/01/05 02:19:01;;;;;;;8.40;6.60;;;;;;;5.90;100.00;97203.17;104920;1271;61439;-73
2022/01/05 02:21:31;;;;;;;9.20;7.10;;;;;;;5.90;100.00;97191.58;104718;1271;76442;-73
2022/01/05 02:23:57;;;;;;;9.60;6.70;;;;;;;5.90;100.00;97187.83;105289;1271;68919;-73
2022/01/05 02:26:24;;;;;;;8.60;7.10;;;;;;;5.91;100.00;97191.88;105121;1271;73181;-72
2022/01/05 02:28:51;;;;;;;9.30;8.30;;;;;;;5.90;100.00;97196.70;105130;1271;61268;-73
2022/01/05 02:31:18;;;;;;;9.30;8.40;;;;;;;5.88;100.00;97197.89;105084;1270;61903;-72
2022/01/05 02:33:45;;;;;;;9.90;8.50;;;;;;;5.85;100.00;97196.86;105140;1271;75187;-72
2022/01/05 02:36:16;;;;;;;11.40;9.60;;;;;;;5.84;100.00;97205.43;105125;1271;70247;-71
2022/01/05 02:38:42;;;;;;;11.90;10.20;;;;;;;5.83;100.00;97204.48;105087;1271;73272;-72
2022/01/05 02:41:10;;;;;;;11.90;9.90;;;;;;;5.82;100.00;97209.95;105130;1271;61367;-72
2022/01/05 02:43:40;;;;;;;10.00;8.60;;;;;;;5.82;100.00;97212.09;105109;1271;61281;-72
2022/01/05 02:46:15;;;;;;;11.00;9.00;;;;;;;5.81;100.00;97210.73;105323;1271;74367;-71
2022/01/05 02:48:42;;;;;;;11.40;9.40;;;;;;;5.81;100.00;97204.03;105134;1271;69187;-72
2022/01/05 02:51:11;;;;;;;12.80;11.40;;;;;;;5.82;100.00;97206.48;105149;1271;73122;-73
2022/01/05 02:53:38;;;;;;;11.40;10.00;;;;;;;5.81;100.00;97211.08;105096;1271;61666;-73
2022/01/05 02:56:05;;;;;;;14.50;11.40;;;;;;;5.81;100.00;97206.84;105087;1271;61327;-72
2022/01/05 02:58:32;;;;;;;14.60;12.20;;;;;;;5.80;100.00;97193.92;105123;1270;74991;-71
2022/01/05 03:01:00;;;;;;;11.40;10.00;;;;;;;5.80;100.00;97193.70;105109;1271;70312;-72
2022/01/05 03:03:26;;;;;;;12.30;10.20;;;;;;;5.81;100.00;97191.17;105060;1271;73114;-71
2022/01/05 03:05:53;;;;;;;16.50;11.10;;;;;;;5.81;100.00;97181.48;105096;1271;61383;-72
2022/01/05 03:08:20;;;;;;;16.70;12.10;;;;;;;5.82;100.00;97169.09;105135;1271;61253;-71
2022/01/05 03:10:46;;;;;;;16.40;12.90;;;;;;;5.83;100.00;97154.19;105133;1271;76058;-72
2022/01/05 03:13:13;;;;;;;16.20;12.00;;;;;;;5.84;100.00;97145.67;105095;1271;70185;-73
2022/01/05 03:15:40;;;;;;;16.50;12.00;;;;;;;5.84;100.00;97141.27;105132;1271;72399;-72
2022/01/05 03:18:08;;;;;;;14.10;11.60;;;;;;;5.85;100.00;97146.52;105275;1271;61258;-72
2022/01/05 03:20:35;;;;;;;14.60;11.60;;;;;;;5.84;100.00;97140.71;105129;1271;61383;-71
2022/01/05 03:23:03;;;;;;;13.30;11.00;;;;;;;5.83;100.00;97141.17;105109;1271;75244;-73
2022/01/05 03:25:31;;;;;;;17.40;12.60;;;;;;;5.81;100.00;97138.55;105114;1268;67838;-71
2022/01/05 03:27:58;;;;;;;15.10;12.00;;;;;;;5.79;100.00;97130.06;104979;1271;74245;-69
2022/01/05 03:30:28;;;;;;;16.30;13.30;;;;;;;5.77;100.00;97126.13;105114;1271;61310;-73
2022/01/05 03:35:38;;;;;;;15.80;13.30;;;;;;;5.73;100.00;97127.64;105124;1271;74844;-72
2022/01/05 03:38:06;;;;;;;16.50;14.00;;;;;;;5.71;100.00;97125.69;105188;1271;69201;-73
2022/01/05 03:40:35;;;;;;;19.00;14.20;;;;;;;5.71;100.00;97116.55;105123;1271;73575;-71
2022/01/05 03:43:03;;;;;;;16.10;13.30;;;;;;;5.70;100.00;97101.98;105146;1271;61467;-73
2022/01/05 03:45:30;;;;;;;16.70;13.90;;;;;;;5.68;100.00;97095.84;105196;1271;61384;-73
2022/01/05 03:47:57;;;;;;;20.00;16.30;;;;;;;5.64;100.00;97105.41;105140;1271;75441;-72
2022/01/05 03:50:24;;;;;;;16.60;14.80;;;;;;;5.62;100.00;97113.02;105170;1271;69771;-72
2022/01/05 03:52:50;;;;;;;15.70;14.10;;;;;;;5.59;100.00;97112.52;105125;1271;73044;-72
2022/01/05 03:55:17;;;;;;;17.00;14.90;;;;;;;5.59;100.00;97113.30;105125;1271;61259;-72
2022/01/05 03:57:44;;;;;;;19.40;15.70;;;;;;;5.58;100.00;97119.50;105127;1271;61277;-73
2022/01/05 04:00:11;;;;;;;18.80;16.80;;;;;;;5.59;100.00;97124.90;105134;1271;75187;-74
2022/01/05 04:02:42;;;;;;;20.70;16.90;;;;;;;5.60;100.00;97143.09;104960;1271;70977;-72
2022/01/05 04:05:09;;;;;;;19.80;17.70;;;;;;;5.62;100.00;97154.41;105103;1271;73505;-74
2022/01/05 04:07:36;;;;;;;19.50;17.50;;;;;;;5.62;100.00;97155.83;105148;1271;61272;-73
2022/01/05 04:10:04;;;;;;;18.30;16.20;;;;;;;5.62;100.00;97156.52;105155;1271;62679;-71
2022/01/05 04:12:31;;;;;;;24.30;21.50;;;;;;;5.64;100.00;97155.83;104931;1271;74584;-73
2022/01/05 04:14:57;;;;;;;22.70;18.10;;;;;;;5.65;100.00;97156.50;105154;1271;70359;-72
2022/01/05 04:17:24;;;;;;;22.70;20.20;;;;;;;5.64;100.00;97166.95;105064;1271;74674;-73
2022/01/05 04:19:51;;;;;;;22.80;20.60;;;;;;;5.64;100.00;97168.73;105113;1271;61359;-72
2022/01/05 04:22:17;;;;;;;19.90;17.80;;;;;;;5.62;100.00;97166.75;105148;1271;61276;-71
2022/01/05 04:24:44;;;;;;;22.80;20.40;;;;;;;5.60;100.00;97168.83;105277;1271;74604;-73
2022/01/05 04:27:11;;;;;;;23.50;21.00;;;;;;;5.62;100.00;97171.89;105580;1271;70280;-72
2022/01/05 04:29:38;;;;;;;22.90;20.40;;;;;;;5.64;100.00;97179.46;105498;1271;73175;-73
2022/01/05 04:32:05;;;;;;;26.20;22.80;;;;;;;5.63;100.00;97169.29;105318;1271;61358;-71
2022/01/05 04:34:31;;;;;;;27.70;24.20;;;;;;;5.65;100.00;97170.60;104931;1271;61210;-71
2022/01/05 04:36:58;;;;;;;25.00;21.70;;;;;;;5.65;100.00;97168.25;105108;1271;75932;-73
2022/01/05 04:39:25;;;;;;;31.10;27.80;;;;;;;5.66;100.00;97172.63;105123;1271;70083;-72
2022/01/05 04:41:51;;;;;;;44.00;34.40;;;;;;;5.66;100.00;97179.99;105148;1271;74428;-71
2022/01/05 04:44:18;;;;;;;40.20;31.90;;;;;;;5.65;100.00;97180.79;105142;1271;61377;-73
2022/01/05 04:46:44;;;;;;;30.30;27.00;;;;;;;5.63;100.00;97181.30;105144;1271;61771;-73
2022/01/05 04:49:11;;;;;;;33.50;27.80;;;;;;;5.61;100.00;97189.23;105104;1271;74718;-72
2022/01/05 04:51:38;;;;;;;32.80;25.90;;;;;;;5.58;100.00;97194.16;105140;1271;70279;-72
2022/01/05 04:54:04;;;;;;;30.80;25.40;;;;;;;5.57;100.00;97191.07;105121;1271;73511;-73
2022/01/05 04:56:31;;;;;;;31.50;24.10;;;;;;;5.56;100.00;97197.00;105133;1271;61268;-73
2022/01/05 04:58:58;;;;;;;32.60;26.10;;;;;;;5.55;100.00;97200.41;105132;1271;61369;-72
2022/01/05 05:01:25;;;;;;;30.90;27.60;;;;;;;5.55;100.00;97200.02;105095;1271;76365;-71
2022/01/05 05:03:51;;;;;;;34.90;30.00;;;;;;;5.56;100.00;97197.17;104925;1271;67491;-72
2022/01/05 05:06:18;;;;;;;34.40;26.90;;;;;;;5.56;100.00;97195.77;105119;1271;72162;-72
2022/01/05 05:08:45;;;;;;;28.80;25.70;;;;;;;5.57;100.00;97198.48;105058;1271;61286;-72
2022/01/05 05:11:11;;;;;;;39.30;28.10;;;;;;;5.57;100.00;97199.52;105050;1271;61934;-72
2022/01/05 05:13:38;;;;;;;37.90;29.00;;;;;;;5.58;100.00;97194.34;105109;1271;76708;-72
2022/01/05 05:16:04;;;;;;;36.90;27.70;;;;;;;5.60;100.00;97195.95;105109;1271;69127;-73
2022/01/05 05:18:31;;;;;;;37.40;29.30;;;;;;;5.59;100.00;97201.01;105096;1271;74499;-73
2022/01/05 05:20:58;;;;;;;37.80;31.70;;;;;;;5.58;100.00;97190.11;105111;1271;61377;-73
2022/01/05 05:23:24;;;;;;;36.30;28.90;;;;;;;5.57;100.00;97191.96;105129;1270;61266;-73
2022/01/05 05:25:51;;;;;;;32.00;27.40;;;;;;;5.56;100.00;97194.88;105116;1271;75367;-73
2022/01/05 05:28:18;;;;;;;32.40;27.40;;;;;;;5.53;100.00;97186.43;105088;1271;68483;-74
2022/01/05 05:30:45;;;;;;;34.20;28.80;;;;;;;5.55;100.00;97190.38;105051;1271;72990;-73
2022/01/05 05:33:12;;;;;;;33.40;29.90;;;;;;;5.53;100.00;97177.48;105094;1271;61411;-74
2022/01/05 05:35:41;;;;;;;33.50;28.00;;;;;;;5.51;100.00;97178.83;105113;1271;61280;-73
2022/01/05 05:38:11;;;;;;;36.00;32.10;;;;;;;5.50;100.00;97182.08;105139;1270;75276;-73
2022/01/05 05:40:39;;;;;;;35.40;30.20;;;;;;;5.48;100.00;97177.98;105066;1271;69151;-74
2022/01/05 05:43:06;;;;;;;36.20;32.10;;;;;;;5.48;100.00;97173.46;105088;1271;73744;-72
2022/01/05 05:45:32;;;;;;;37.60;31.10;;;;;;;5.46;100.00;97163.56;105138;1271;61211;-70
2022/01/05 05:47:59;;;;;;;39.50;32.30;;;;;;;5.48;100.00;97164.84;105088;1270;61239;-69
2022/01/05 05:50:26;;;;;;;37.90;32.00;;;;;;;5.51;100.00;97178.64;104977;1271;75169;-72
2022/01/05 05:52:52;;;;;;;37.60;32.50;;;;;;;5.52;100.00;97190.94;105144;1271;69237;-73
2022/01/05 05:55:19;;;;;;;41.60;36.80;;;;;;;5.51;100.00;97197.02;105067;1271;72232;-72
2022/01/05 05:57:46;;;;;;;44.40;37.80;;;;;;;5.50;100.00;97193.00;104984;1271;61347;-74
2022/01/05 06:00:14;;;;;;;49.60;38.50;;;;;;;5.51;100.00;97182.02;105164;1271;61403;-73
2022/01/05 06:02:40;;;;;;;49.30;38.20;;;;;;;5.53;100.00;97160.23;105233;1271;76358;-72
2022/01/05 06:05:08;;;;;;;46.60;38.00;;;;;;;5.54;100.00;97151.15;105183;1271;69474;-73
2022/01/05 06:07:34;;;;;;;38.40;33.80;;;;;;;5.55;100.00;97160.75;105288;1271;73463;-72
2022/01/05 06:10:01;;;;;;;42.80;32.50;;;;;;;5.53;100.00;97175.04;105159;1271;61262;-72
2022/01/05 06:12:28;;;;;;;43.10;33.80;;;;;;;5.49;100.00;97186.02;105182;1271;61269;-72
2022/01/05 06:14:55;;;;;;;40.20;33.10;;;;;;;5.46;100.00;97189.09;105158;1271;76373;-73
2022/01/05 06:17:21;;;;;;;40.20;33.00;;;;;;;5.44;100.00;97177.60;105159;1271;70380;-72
2022/01/05 06:19:48;;;;;;;35.80;29.60;;;;;;;5.45;100.00;97167.81;105130;1271;73321;-72
2022/01/05 06:22:15;;;;;;;31.30;27.10;;;;;;;5.47;100.00;97178.43;105184;1271;61289;-72
2022/01/05 06:24:42;;;;;;;37.00;27.30;;;;;;;5.46;100.00;97179.20;105210;1271;61454;-72
2022/01/05 06:27:09;;;;;;;31.50;27.00;;;;;;;5.46;100.00;97184.15;105286;1271;74325;-73
2022/01/05 06:29:37;;;;;;;28.70;23.40;;;;;;;5.46;100.00;97203.00;105312;1271;69685;-73
2022/01/05 06:32:05;;;;;;;29.40;23.00;;;;;;;5.43;100.00;97213.27;105194;1271;74400;-73
2022/01/05 06:34:32;;;;;;;25.30;20.40;;;;;;;5.40;100.00;97212.27;105446;1271;61380;-72
2022/01/05 06:36:59;;;;;;;27.00;22.20;;;;;;;5.39;100.00;97212.15;106614;1271;60267;-71
2022/01/05 06:39:26;;;;;;;25.10;22.40;;;;;;;5.40;100.00;97229.02;107225;1271;76269;-71
2022/01/05 06:41:53;;;;;;;31.60;27.30;;;;;;;5.40;100.00;97234.45;107285;1271;70418;-72
2022/01/05 06:44:20;;;;;;;33.30;27.70;;;;;;;5.44;100.00;97220.74;106805;1271;73343;-73
2022/01/05 06:46:47;;;;;;;34.50;29.70;;;;;;;5.47;100.00;97217.39;105154;1270;61384;-72
2022/01/05 06:49:14;;;;;;;32.70;27.10;;;;;;;5.48;100.00;97217.45;105197;1271;61343;-73
2022/01/05 06:51:40;;;;;;;34.30;28.30;;;;;;;5.49;100.00;97226.41;105162;1271;76161;-72
2022/01/05 06:54:07;;;;;;;37.90;31.90;;;;;;;5.48;100.00;97226.09;105135;1271;70469;-73
2022/01/05 06:56:35;;;;;;;37.10;31.60;;;;;;;5.48;100.00;97223.99;105186;1271;74374;-72
2022/01/05 06:59:02;;;;;;;38.10;32.20;;;;;;;5.48;100.00;97230.30;104750;1271;61420;-73
2022/01/05 07:01:29;;;;;;;39.90;32.50;;;;;;;5.50;100.00;97221.39;105153;1271;61847;-72
2022/01/05 07:03:56;;;;;;;40.20;33.30;;;;;;;5.50;100.00;97218.17;104978;1271;75886;-72
2022/01/05 07:06:23;;;;;;;42.10;35.90;;;;;;;5.50;100.00;97218.52;105119;1271;69393;-72
2022/01/05 07:08:49;;;;;;;41.10;35.00;;;;;;;5.50;100.00;97215.41;105108;1270;73520;-73
2022/01/05 07:11:16;;;;;;;44.20;35.10;;;;;;;5.51;100.00;97213.94;105137;1271;61316;-72
2022/01/05 07:13:42;;;;;;;40.50;34.60;;;;;;;5.50;100.00;97220.46;105104;1271;61322;-76
2022/01/05 07:16:09;;;;;;;44.20;35.90;;;;;;;5.51;100.00;97220.93;105111;1271;75734;-72
2022/01/05 07:18:36;;;;;;;46.40;38.30;;;;;;;5.53;100.00;97221.89;105057;1271;68884;-72
2022/01/05 07:21:02;;;;;;;49.80;41.70;;;;;;;5.54;100.00;97224.30;105050;1271;74242;-72
2022/01/05 07:23:30;;;;;;;47.60;40.70;;;;;;;5.55;100.00;97222.05;105160;1271;61372;-72
2022/01/05 07:25:56;;;;;;;49.30;38.70;;;;;;;5.57;100.00;97221.92;105102;1271;61279;-72
2022/01/05 07:28:23;;;;;;;43.60;36.80;;;;;;;5.59;100.00;97222.27;105136;1271;74313;-72
2022/01/05 07:30:49;;;;;;;37.90;32.60;;;;;;;5.60;100.00;97227.52;105104;1271;69084;-72
2022/01/05 07:33:16;;;;;;;48.30;37.30;;;;;;;5.58;100.00;97219.06;105105;1271;73025;-73
2022/01/05 07:35:43;;;;;;;34.60;28.30;;;;;;;5.58;100.00;97216.19;105132;1271;61383;-70
2022/01/05 07:38:10;;;;;;;27.00;21.70;;;;;;;5.59;100.00;97231.47;105136;1271;61254;-72
2022/01/05 07:40:36;;;;;;;25.50;19.90;;;;;;;5.59;100.00;97231.83;105124;1271;76303;-74
2022/01/05 07:43:06;;;;;;;24.90;19.00;;;;;;;5.60;100.00;97220.65;105109;1271;69136;-73
2022/01/05 07:45:35;;;;;;;22.40;17.60;;;;;;;5.61;100.00;97217.02;105170;1271;73228;-72
2022/01/05 07:48:03;;;;;;;25.10;18.00;;;;;;;5.61;100.00;97212.42;105094;1271;61428;-71
2022/01/05 07:50:31;;;;;;;23.90;18.50;;;;;;;5.61;100.00;97205.07;105267;1271;61176;-72
2022/01/05 07:53:01;;;;;;;24.00;18.40;;;;;;;5.60;100.00;97200.88;105107;1271;76467;-73
2022/01/05 07:55:30;;;;;;;21.70;18.80;;;;;;;5.66;100.00;97202.89;105144;1271;68025;-72
2022/01/05 07:57:59;;;;;;;25.00;18.70;;;;;;;5.70;100.00;97202.95;105226;1271;73498;-73
2022/01/05 08:00:26;;;;;;;21.60;18.20;;;;;;;5.70;100.00;97211.75;105287;1271;61249;-73
2022/01/05 08:02:53;;;;;;;24.00;20.40;;;;;;;5.68;100.00;97219.14;105110;1271;61230;-72
2022/01/05 08:05:19;;;;;;;35.10;28.20;;;;;;;5.65;100.00;97217.79;105126;1271;76536;-71
2022/01/05 08:07:46;;;;;;;43.20;31.90;;;;;;;5.63;100.00;97212.66;105120;1271;70356;-73
2022/01/05 08:10:13;;;;;;;65.60;40.40;;;;;;;5.61;100.00;97217.23;105183;1271;73337;-73
2022/01/05 08:12:41;;;;;;;64.90;43.40;;;;;;;5.60;100.00;97214.82;105137;1271;61294;-73
2022/01/05 08:15:12;;;;;;;80.70;46.20;;;;;;;5.58;100.00;97211.81;104913;1275;61375;-75
2022/01/05 08:17:39;;;;;;;;;;;;;;;5.55;100.00;97206.08;104910;1271;74887;-72
2022/01/05 08:20:10;;;;;;;69.10;42.60;;;;;;;5.54;100.00;97209.30;105112;1271;69299;-73
2022/01/05 08:22:41;;;;;;;58.10;39.90;;;;;;;5.56;100.00;97208.27;105065;1271;73225;-71
2022/01/05 08:25:09;;;;;;;50.40;36.10;;;;;;;5.60;100.00;97212.17;105209;1271;61320;-73
2022/01/05 08:27:36;;;;;;;48.50;33.70;;;;;;;5.65;100.00;97217.24;105145;1271;61298;-73
2022/01/05 08:30:06;;;;;;;45.80;33.70;;;;;;;5.67;100.00;97223.25;105105;1271;76147;-72
2022/01/05 08:32:33;;;;;;;46.90;33.80;;;;;;;5.67;100.00;97224.13;105006;1271;67491;-73
2022/01/05 08:34:59;;;;;;;42.70;32.20;;;;;;;5.67;100.00;97221.19;105109;1271;72495;-73
2022/01/05 08:37:26;;;;;;;41.80;30.40;;;;;;;5.67;100.00;97220.27;105112;1271;61281;-72
2022/01/05 08:39:53;;;;;;;43.20;31.10;;;;;;;5.67;100.00;97223.61;105091;1271;61184;-73
2022/01/05 08:42:21;;;;;;;46.30;30.80;;;;;;;5.66;100.00;97226.52;105103;1271;75287;-74
2022/01/05 08:44:47;;;;;;;45.90;35.30;;;;;;;5.65;100.00;97243.13;104929;1272;70605;-72
2022/01/05 08:47:14;;;;;;;52.50;36.90;;;;;;;5.65;100.00;97247.02;105141;1271;73823;-73
2022/01/05 08:49:41;;;;;;;54.70;39.30;;;;;;;5.65;100.00;97246.52;105099;1271;61443;-74
2022/01/05 08:52:08;;;;;;;45.90;36.30;;;;;;;5.66;100.00;97246.77;104917;1272;61943;-72
2022/01/05 08:54:34;;;;;;;36.90;29.20;;;;;;;5.67;100.00;97245.27;105111;1271;75574;-76
2022/01/05 08:57:02;;;;;;;35.30;28.60;;;;;;;5.67;100.00;97246.34;105150;1271;70625;-74
2022/01/05 08:59:32;;;;;;;33.90;26.60;;;;;;;5.67;100.00;97249.68;105153;1271;72555;-73
2022/01/05 09:01:59;;;;;;;30.30;23.80;;;;;;;5.67;100.00;97254.80;105062;1271;61272;-73
2022/01/05 09:04:26;;;;;;;39.70;27.60;;;;;;;5.64;100.00;97258.02;105142;1271;61199;-73
2022/01/05 09:06:53;;;;;;;34.00;23.10;;;;;;;5.61;100.00;97265.14;105123;1271;75093;-74
2022/01/05 09:09:20;;;;;;;29.30;19.50;;;;;;;5.59;100.00;97267.21;105117;1271;67831;-76
2022/01/05 09:11:48;;;;;;;31.30;19.70;;;;;;;5.58;100.00;97267.83;104962;1271;74517;-73
2022/01/05 09:14:14;;;;;;;32.20;21.10;;;;;;;5.58;100.00;97269.24;105091;1271;61272;-73
2022/01/05 09:16:41;;;;;;;32.50;22.30;;;;;;;5.59;100.00;97268.48;105204;1271;61833;-71
2022/01/05 09:19:08;;;;;;;33.40;21.00;;;;;;;5.60;100.00;97269.05;105135;1271;75443;-77
2022/01/05 09:21:35;;;;;;;36.60;22.10;;;;;;;5.61;100.00;97274.30;105222;1271;68821;-76
2022/01/05 09:24:04;;;;;;;37.00;23.50;;;;;;;5.59;100.00;97273.73;105169;1271;72907;-76
2022/01/05 09:26:30;;;;;;;34.50;23.20;;;;;;;5.59;100.00;97267.57;105273;1271;61388;-79
2022/01/05 09:28:57;;;;;;;38.80;26.80;;;;;;;5.60;100.00;97272.45;105106;1271;61549;-82
2022/01/05 09:31:24;;;;;;;35.20;24.90;;;;;;;5.59;100.00;97273.36;105471;1271;75378;-81
2022/01/05 09:33:50;;;;;;;34.70;26.40;;;;;;;5.63;100.00;97274.16;106107;1268;69199;-79
2022/01/05 09:36:29;;;;;;;34.10;25.20;;;;;;;5.66;100.00;97282.90;105806;1271;73463;-77
2022/01/05 09:42:05;;;;;;;22.60;16.50;;;;;;;5.76;100.00;97286.56;105231;1271;62736;-79
2022/01/05 09:44:42;;;;;;;24.80;18.30;;;;;;;5.83;100.00;97279.49;105170;1271;75030;-76
2022/01/05 09:47:11;;;;;;;17.80;13.80;;;;;;;5.90;100.00;97279.73;105254;1271;69047;-81
2022/01/05 09:49:42;;;;;;;18.20;13.30;;;;;;;5.92;100.00;97277.06;105470;1271;74928;-79
2022/01/05 09:52:11;;;;;;;22.20;15.50;;;;;;;5.94;100.00;97281.02;105317;1271;61464;-82
2022/01/05 09:54:43;;;;;;;20.00;13.20;;;;;;;5.94;100.00;97275.55;105458;1271;61175;-79
2022/01/05 09:57:13;;;;;;;15.70;10.80;;;;;;;5.91;100.00;97277.89;105147;1271;74637;-80
2022/01/05 09:59:40;;;;;;;16.90;10.10;;;;;;;5.88;100.00;97266.44;105807;1271;70388;-75
2022/01/05 10:02:07;;;;;;;18.10;11.60;;;;;;;5.86;100.00;97268.21;105399;1271;74117;-77
2022/01/05 10:04:37;;;;;;;15.40;10.70;;;;;;;5.86;100.00;97257.58;105332;1271;61256;-77
2022/01/05 10:07:07;;;;;;;24.20;12.90;;;;;;;5.92;100.00;97255.41;105382;1271;61288;-76
2022/01/05 10:09:38;;;;;;;27.60;13.80;;;;;;;6.01;100.00;97255.23;105083;1271;75320;-71
2022/01/05 10:12:08;;;;;;;26.80;12.70;;;;;;;6.12;100.00;97257.23;104952;1271;69787;-70
2022/01/05 10:14:39;;;;;;;25.30;11.70;;;;;;;6.20;100.00;97249.27;105182;1271;74588;-70
2022/01/05 10:17:12;;;;;;;21.70;14.20;;;;;;;6.23;100.00;97253.05;105372;1271;61276;-71
2022/01/05 10:19:40;;;;;;;15.80;11.20;;;;;;;6.24;100.00;97259.14;105129;1271;62021;-69
2022/01/05 10:22:28;;;;;;;15.60;11.40;;;;;;;6.26;100.00;97261.65;105198;1271;75443;-71
2022/01/05 10:24:56;;;;;;;11.70;10.30;;;;;;;6.28;100.00;97262.20;105052;1274;66387;-67
2022/01/05 10:27:25;;;;;;;10.60;8.30;;;;;;;6.29;100.00;97256.96;105134;1271;73996;-68
2022/01/05 10:29:59;;;;;;;10.50;7.20;;;;;;;6.27;100.00;97254.30;105224;1271;61365;-71
2022/01/05 10:32:32;;;;;;;10.20;8.50;;;;;;;6.22;100.00;97252.45;105196;1271;61407;-70
2022/01/05 10:35:10;;;;;;;15.10;8.50;;;;;;;6.16;100.00;97252.17;105515;1271;76144;-71
2022/01/05 10:37:40;;;;;;;12.50;8.10;;;;;;;6.13;100.00;97249.55;105186;1271;69626;-71
2022/01/05 10:40:11;;;;;;;9.60;6.90;;;;;;;6.13;100.00;97248.86;105057;1271;74223;-68
2022/01/05 10:42:39;;;;;;;19.90;10.20;;;;;;;6.13;100.00;97252.25;105003;1271;61247;-70
2022/01/05 10:45:08;;;;;;;16.90;11.00;;;;;;;6.11;100.00;97248.30;105168;1271;61419;-71
2022/01/05 10:47:38;;;;;;;17.70;10.30;;;;;;;6.12;100.00;97243.11;105489;1271;76633;-70
2022/01/05 10:50:11;;;;;;;24.50;13.20;;;;;;;6.12;100.00;97241.88;104964;1271;69295;-70
2022/01/05 10:52:37;;;;;;;18.60;11.40;;;;;;;6.11;100.00;97241.77;104963;1271;73427;-71
2022/01/05 10:55:16;;;;;;;13.40;9.20;;;;;;;6.12;100.00;97241.02;105247;1271;61260;-72
2022/01/05 10:58:10;;;;;;;14.60;9.00;;;;;;;6.13;100.00;97237.08;105236;1271;61940;-71
2022/01/05 11:00:40;;;;;;;14.10;8.60;;;;;;;6.14;100.00;97235.73;104781;1271;74898;-70
2022/01/05 11:03:19;;;;;;;12.30;7.40;;;;;;;6.16;100.00;97241.08;105254;1271;70183;-70
2022/01/05 11:06:10;;;;;;;11.70;7.80;;;;;;;6.20;100.00;97240.56;105227;1271;72190;-72
2022/01/05 11:08:57;;;;;;;16.10;8.80;;;;;;;6.23;100.00;97235.05;105191;1271;61319;-70
2022/01/05 11:11:43;;;;;;;18.40;11.10;;;;;;;6.24;100.00;97232.86;105234;1271;61838;-72
2022/01/05 11:14:29;;;;;;;14.10;9.30;;;;;;;6.27;100.00;97242.50;105237;1271;76509;-70
2022/01/05 11:16:58;;;;;;;13.40;10.30;;;;;;;6.31;100.00;97241.85;105394;1271;67593;-70
2022/01/05 11:19:27;;;;;;;16.70;12.40;;;;;;;6.32;100.00;97233.29;105209;1272;74540;-70
2022/01/05 11:21:56;;;;;;;12.40;9.60;;;;;;;6.35;100.00;97225.79;105266;1271;61253;-71